Time;durP1;ratioP1;P1;durP2;ratioP2;P2;SDS_P1;SDS_P2;PMS_P1;PMS_P2;Temp;Humidity;BMP_temperature;BMP_pressure;BME280_temperature;BME280_humidity;BME280_pressure;Samples;Min_cycle;Max_cycle;Signal;HPM_P1;HPM_P2
2022/10/12 00:05:00;;;;;;;40.90;22.70;;;;;;;2.62;74.61;100859.77;216026;1274;140029;-64
2022/10/12 00:10:05;;;;;;;37.50;22.00;;;;;;;2.57;75.22;100860.95;216130;1274;140182;-64
2022/10/12 00:15:10;;;;;;;36.00;18.50;;;;;;;2.56;74.76;100859.86;216042;1274;141965;-64
2022/10/12 00:20:15;;;;;;;42.90;21.90;;;;;;;2.57;74.71;100861.71;215799;1274;140472;-64
2022/10/12 00:25:19;;;;;;;36.30;21.60;;;;;;;2.59;74.79;100860.70;216039;1274;140287;-64
2022/10/12 00:30:24;;;;;;;28.90;19.50;;;;;;;2.57;74.82;100860.48;215964;1273;140213;-64
2022/10/12 00:35:28;;;;;;;26.90;17.90;;;;;;;2.47;74.69;100861.11;215726;1276;140142;-63
2022/10/12 00:40:32;;;;;;;35.10;18.50;;;;;;;2.34;74.65;100861.05;216018;1274;139929;-64
2022/10/12 00:45:36;;;;;;;37.90;20.30;;;;;;;2.32;74.77;100861.45;215925;1274;141047;-65
2022/10/12 00:50:42;;;;;;;34.10;18.50;;;;;;;2.35;74.77;100861.67;216028;1274;141253;-64
2022/10/12 00:56:01;;;;;;;33.60;19.60;;;;;;;2.29;74.70;100864.16;216162;1274;140777;-65
2022/10/12 01:01:07;;;;;;;33.70;17.50;;;;;;;2.25;74.97;100865.83;215929;1272;140368;-67
2022/10/12 01:06:11;;;;;;;32.30;19.10;;;;;;;2.17;74.96;100865.96;214814;1276;140501;-64
2022/10/12 01:11:16;;;;;;;36.00;22.90;;;;;;;2.08;74.70;100866.53;215168;1274;141473;-64
2022/10/12 01:16:37;;;;;;;29.70;20.80;;;;;;;2.00;74.51;100861.86;216218;1274;143037;-64
2022/10/12 01:21:51;;;;;;;36.30;20.40;;;;;;;1.95;74.87;100867.27;216002;1273;139707;-67
2022/10/12 01:27:26;;;;;;;25.70;17.50;;;;;;;1.90;75.03;100870.90;214811;1274;140043;-64
2022/10/12 01:32:53;;;;;;;26.30;17.00;;;;;;;1.87;75.42;100876.42;215697;1277;139576;-66
2022/10/12 01:38:31;;;;;;;30.60;17.50;;;;;;;1.90;75.70;100880.59;213780;1274;139828;-63
2022/10/12 01:43:41;;;;;;;24.60;17.20;;;;;;;1.90;75.38;100882.27;212909;1273;142268;-62
2022/10/12 01:48:53;;;;;;;21.60;16.40;;;;;;;1.84;75.34;100883.65;215913;1274;143070;-63
2022/10/12 01:54:20;;;;;;;27.00;16.80;;;;;;;1.77;75.53;100888.15;215913;1274;140960;-65
2022/10/12 01:59:30;;;;;;;28.30;16.60;;;;;;;1.71;75.50;100890.61;215636;1276;141881;-64
2022/10/12 02:05:04;;;;;;;23.70;15.60;;;;;;;1.67;76.22;100893.61;215875;1274;140898;-64
2022/10/12 02:10:18;;;;;;;27.40;16.30;;;;;;;1.65;75.42;100894.06;216066;1274;140397;-64
2022/10/12 02:15:26;;;;;;;32.70;17.00;;;;;;;1.62;75.44;100895.90;216112;1274;154405;-67
2022/10/12 02:20:31;;;;;;;26.80;15.30;;;;;;;1.62;75.86;100890.45;216014;1274;141078;-66
2022/10/12 02:25:38;;;;;;;32.30;16.90;;;;;;;1.54;75.48;100890.05;215869;1274;141407;-67
2022/10/12 02:31:04;;;;;;;25.50;16.40;;;;;;;1.54;76.39;100894.38;215913;1274;140192;-67
2022/10/12 02:36:39;;;;;;;32.60;20.50;;;;;;;1.52;76.01;100893.41;215930;1273;163443;-67
2022/10/12 02:41:49;;;;;;;39.60;17.60;;;;;;;1.48;75.48;100893.44;215954;1273;142036;-67
2022/10/12 02:46:54;;;;;;;31.10;18.20;;;;;;;1.54;75.92;100899.08;216176;1274;141539;-67
2022/10/12 02:51:58;;;;;;;41.10;18.20;;;;;;;1.53;75.67;100898.92;215069;1275;140781;-64
2022/10/12 02:57:03;;;;;;;39.00;21.00;;;;;;;1.40;75.96;100901.39;216047;1273;140351;-64
2022/10/12 03:02:09;;;;;;;54.10;24.00;;;;;;;1.33;75.93;100898.92;216025;1273;141169;-64
2022/10/12 03:07:14;;;;;;;41.70;24.00;;;;;;;1.30;76.20;100901.77;215939;1274;141360;-65
2022/10/12 03:12:18;;;;;;;33.90;22.70;;;;;;;1.28;76.11;100900.05;215989;1273;141207;-64
2022/10/12 03:17:23;;;;;;;35.00;21.90;;;;;;;1.28;75.57;100898.51;215756;1274;141249;-64
2022/10/12 03:22:28;;;;;;;33.50;20.60;;;;;;;1.22;75.56;100895.06;215896;1274;142052;-63
2022/10/12 03:27:32;;;;;;;26.70;17.50;;;;;;;1.12;75.79;100889.70;216078;1274;139131;-63
2022/10/12 03:32:37;;;;;;;37.60;19.50;;;;;;;1.09;76.25;100890.38;214127;1274;140529;-62
2022/10/12 03:37:42;;;;;;;28.40;17.10;;;;;;;1.11;76.68;100895.21;216167;1274;140366;-62
2022/10/12 03:42:46;;;;;;;27.00;15.30;;;;;;;1.07;76.12;100890.52;216148;1274;140792;-63
2022/10/12 03:47:50;;;;;;;28.10;19.20;;;;;;;1.08;76.16;100890.59;216125;1274;141733;-62
2022/10/12 03:52:55;;;;;;;35.70;20.10;;;;;;;1.09;76.22;100888.05;215985;1273;140855;-62
2022/10/12 03:57:59;;;;;;;30.40;19.50;;;;;;;1.05;76.36;100891.98;216105;1274;140878;-61
2022/10/12 04:03:04;;;;;;;30.80;18.40;;;;;;;0.96;76.18;100899.65;214661;1273;141809;-63
2022/10/12 04:08:09;;;;;;;24.50;14.20;;;;;;;0.88;76.31;100901.83;213488;1274;142818;-62
2022/10/12 04:13:13;;;;;;;29.20;16.90;;;;;;;0.79;76.04;100898.65;215878;1274;142026;-63
2022/10/12 04:18:18;;;;;;;24.60;16.60;;;;;;;0.82;76.36;100900.13;215965;1274;142022;-64
2022/10/12 04:23:21;;;;;;;27.60;17.30;;;;;;;0.80;76.68;100901.85;216088;1274;140867;-63
2022/10/12 04:28:24;;;;;;;31.80;18.60;;;;;;;0.75;76.65;100904.95;216144;1274;139500;-65
2022/10/12 04:33:27;;;;;;;28.10;18.00;;;;;;;0.75;76.73;100904.93;216157;1274;139986;-65
2022/10/12 04:38:32;;;;;;;29.60;17.30;;;;;;;0.78;76.78;100913.43;215765;1272;141276;-64
2022/10/12 04:43:36;;;;;;;26.60;17.60;;;;;;;0.85;76.70;100918.52;215809;1274;162182;-65
2022/10/12 04:48:40;;;;;;;25.90;16.60;;;;;;;0.81;76.28;100918.07;215819;1274;141630;-66
2022/10/12 04:53:45;;;;;;;30.30;17.60;;;;;;;0.70;76.64;100916.29;215828;1274;140341;-66
2022/10/12 04:58:49;;;;;;;27.00;17.00;;;;;;;0.70;76.96;100915.90;216237;1273;140743;-65
2022/10/12 05:03:59;;;;;;;21.30;12.30;;;;;;;0.68;77.05;100912.90;216094;1274;141568;-66
2022/10/12 05:09:04;;;;;;;32.40;17.70;;;;;;;0.66;76.69;100914.17;215827;1274;141124;-66
2022/10/12 05:14:09;;;;;;;40.40;23.40;;;;;;;0.75;76.78;100919.79;215852;1273;142759;-65
2022/10/12 05:19:13;;;;;;;47.80;31.50;;;;;;;0.79;77.28;100923.98;215857;1273;139676;-64
2022/10/12 05:24:17;;;;;;;32.40;22.60;;;;;;;0.79;77.23;100928.48;215943;1274;142268;-65
2022/10/12 05:29:22;;;;;;;30.50;19.10;;;;;;;0.76;76.89;100925.12;215120;1274;141438;-63
2022/10/12 05:34:25;;;;;;;31.10;16.70;;;;;;;0.75;76.95;100928.92;216017;1274;140130;-65
2022/10/12 05:39:29;;;;;;;30.30;19.20;;;;;;;0.83;76.88;100933.73;214832;1274;140112;-64
2022/10/12 05:44:33;;;;;;;34.90;19.20;;;;;;;0.97;77.46;100937.52;213263;1274;140604;-64
2022/10/12 05:49:37;;;;;;;27.70;16.00;;;;;;;1.10;77.40;100943.80;215378;1274;400359;-66
2022/10/12 05:54:40;;;;;;;26.00;15.50;;;;;;;1.13;77.61;100941.12;215955;1273;140652;-66
2022/10/12 05:59:44;;;;;;;41.60;23.20;;;;;;;1.16;77.84;100947.48;215902;1274;140635;-65
2022/10/12 06:04:48;;;;;;;32.20;20.20;;;;;;;1.37;77.73;100948.30;215967;1273;140750;-63
2022/10/12 06:09:53;;;;;;;43.10;25.00;;;;;;;1.55;77.81;100946.33;215908;1273;140141;-63
2022/10/12 06:14:57;;;;;;;46.00;26.80;;;;;;;1.70;77.98;100950.48;216000;1274;141186;-64
2022/10/12 06:20:04;;;;;;;36.40;21.40;;;;;;;1.90;78.25;100949.42;215138;1274;140777;-62
2022/10/12 06:25:09;;;;;;;42.40;24.20;;;;;;;2.14;78.17;100955.55;216019;1274;140337;-63
2022/10/12 06:30:13;;;;;;;43.80;25.80;;;;;;;2.35;78.51;100960.27;215945;1274;140291;-64
2022/10/12 06:35:17;;;;;;;40.80;26.30;;;;;;;2.58;78.91;100961.81;215695;1274;139620;-63
2022/10/12 06:40:25;;;;;;;39.40;26.20;;;;;;;2.82;79.03;100958.52;216076;1274;139795;-63
2022/10/12 06:45:29;;;;;;;;;;;;;;;3.18;79.33;100959.42;216052;1274;140072;-66
2022/10/12 06:50:34;;;;;;;42.80;28.40;;;;;;;3.55;79.34;100957.67;216713;1274;128337;-67
2022/10/12 06:55:39;;;;;;;48.30;30.80;;;;;;;4.42;79.72;100956.83;215860;1274;139996;-68
2022/10/12 07:00:44;;;;;;;45.00;26.70;;;;;;;5.87;79.76;100951.59;215962;1273;140582;-69
2022/10/12 07:05:49;;;;;;;38.00;24.00;;;;;;;7.45;78.94;100951.19;215907;1274;139857;-66
2022/10/12 07:11:01;;;;;;;49.00;28.60;;;;;;;8.97;78.15;100951.29;216124;1274;140030;-64
2022/10/12 07:16:05;;;;;;;35.50;25.00;;;;;;;10.20;76.48;100957.09;216198;1273;142342;-65
2022/10/12 07:21:10;;;;;;;27.20;22.20;;;;;;;11.03;75.50;100959.54;215999;1274;139862;-63
2022/10/12 07:26:15;;;;;;;28.20;21.90;;;;;;;11.56;73.97;100963.10;214723;1274;227486;-66
2022/10/12 07:31:19;;;;;;;40.00;25.10;;;;;;;11.75;73.15;100962.86;215765;1274;141518;-66
2022/10/12 07:36:23;;;;;;;40.00;24.90;;;;;;;12.04;72.99;100960.15;215829;1272;140301;-67
2022/10/12 07:41:47;;;;;;;26.00;21.70;;;;;;;12.23;72.30;100959.03;214079;1274;140454;-65
2022/10/12 07:46:55;;;;;;;34.70;23.80;;;;;;;12.29;71.88;100962.61;214013;1274;140982;-65
2022/10/12 07:51:59;;;;;;;32.20;19.90;;;;;;;12.49;72.04;100960.55;215733;1274;140317;-66
2022/10/12 07:57:02;;;;;;;33.30;21.40;;;;;;;12.69;72.04;100954.13;216000;1274;142008;-67
2022/10/12 08:02:09;;;;;;;27.00;17.80;;;;;;;12.78;71.36;100949.99;215886;1274;140187;-66
2022/10/12 08:07:13;;;;;;;28.70;19.00;;;;;;;12.76;70.92;100953.42;215871;1274;141224;-66
2022/10/12 08:12:17;;;;;;;27.60;16.70;;;;;;;12.80;71.08;100950.92;215809;1273;139887;-67
2022/10/12 08:17:21;;;;;;;24.10;15.90;;;;;;;12.94;70.82;100953.20;215893;1274;141839;-68
2022/10/12 08:22:25;;;;;;;28.00;14.30;;;;;;;13.14;70.38;100950.55;215870;1274;140859;-67
2022/10/12 08:27:30;;;;;;;17.40;11.10;;;;;;;13.27;70.14;100952.80;215944;1274;140354;-66
2022/10/12 08:32:33;;;;;;;20.40;10.00;;;;;;;13.41;69.52;100949.20;216007;1274;141855;-66
2022/10/12 08:37:40;;;;;;;11.70;6.90;;;;;;;13.49;69.03;100946.86;215778;1274;140086;-66
2022/10/12 08:43:12;;;;;;;12.80;7.20;;;;;;;13.58;68.49;100948.88;215963;1274;142970;-65
2022/10/12 08:48:31;;;;;;;9.60;5.70;;;;;;;13.72;67.98;100951.34;215623;1276;140357;-65
2022/10/12 08:53:59;;;;;;;8.50;4.50;;;;;;;13.91;67.57;100947.59;215970;1274;140605;-66
2022/10/12 08:59:02;;;;;;;9.70;5.10;;;;;;;14.14;66.47;100950.30;215748;1274;140293;-67
2022/10/12 09:04:30;;;;;;;9.90;5.30;;;;;;;14.30;66.19;100953.35;216047;1274;139587;-65
2022/10/12 09:10:00;;;;;;;8.00;3.60;;;;;;;14.55;65.63;100949.38;216243;1274;140587;-66
2022/10/12 09:15:17;;;;;;;4.10;3.30;;;;;;;14.69;64.92;100949.34;215856;1272;140539;-67
2022/10/12 09:20:30;;;;;;;9.20;3.20;;;;;;;14.78;64.18;100943.50;215670;1274;140463;-66
2022/10/12 09:25:35;;;;;;;10.20;4.10;;;;;;;14.92;64.08;100943.88;215843;1274;139796;-66
2022/10/12 09:30:52;;;;;;;8.70;2.80;;;;;;;15.05;63.24;100938.68;215801;1274;140094;-66
2022/10/12 09:35:57;;;;;;;7.80;3.90;;;;;;;15.13;62.56;100939.10;215966;1274;141191;-64
2022/10/12 09:41:00;;;;;;;7.10;3.10;;;;;;;15.32;62.48;100946.35;214517;1274;140372;-65
2022/10/12 09:46:11;;;;;;;4.00;1.90;;;;;;;15.56;62.06;100949.21;216195;1274;140268;-65
2022/10/12 09:51:17;;;;;;;3.90;1.50;;;;;;;15.61;60.97;100950.98;215881;1274;140087;-66
2022/10/12 09:56:26;;;;;;;8.10;2.30;;;;;;;15.75;60.92;100952.77;215957;1274;139671;-67
2022/10/12 10:01:33;;;;;;;12.20;1.90;;;;;;;15.84;59.90;100952.25;216016;1274;141380;-67
2022/10/12 10:06:44;;;;;;;12.50;1.70;;;;;;;15.78;59.46;100956.27;215575;1274;140524;-65
2022/10/12 10:11:50;;;;;;;7.30;2.00;;;;;;;15.93;59.21;100950.30;215913;1274;140144;-66
2022/10/12 10:16:54;;;;;;;6.10;2.00;;;;;;;16.18;59.13;100949.58;216003;1274;139751;-66
2022/10/12 10:22:05;;;;;;;9.40;2.40;;;;;;;16.31;58.47;100952.18;214528;1274;139819;-66
2022/10/12 10:27:28;;;;;;;6.30;2.30;;;;;;;16.29;57.67;100950.64;215940;1274;140624;-66
2022/10/12 10:32:31;;;;;;;5.90;2.10;;;;;;;16.20;57.42;100944.34;215937;1274;140074;-66
2022/10/12 10:37:35;;;;;;;3.00;1.70;;;;;;;15.93;57.19;100939.28;215869;1272;140304;-68
2022/10/12 10:42:39;;;;;;;9.60;2.00;;;;;;;16.07;57.34;100935.98;215963;1273;140493;-66
2022/10/12 10:47:45;;;;;;;9.90;2.00;;;;;;;16.33;57.38;100934.56;215851;1272;140630;-65
2022/10/12 10:52:59;;;;;;;3.20;1.20;;;;;;;16.31;56.97;100933.83;215986;1274;140825;-66
2022/10/12 10:58:33;;;;;;;3.60;1.80;;;;;;;16.59;56.81;100930.64;216008;1273;162881;-67
2022/10/12 11:03:48;;;;;;;5.70;2.60;;;;;;;16.85;56.20;100926.90;216004;1274;140101;-66
2022/10/12 11:09:02;;;;;;;6.70;2.70;;;;;;;17.12;55.89;100920.66;215876;1274;140858;-66
2022/10/12 11:14:21;;;;;;;3.70;1.60;;;;;;;17.14;54.81;100918.26;215659;1274;140435;-65
2022/10/12 11:19:36;;;;;;;4.90;3.00;;;;;;;16.91;54.21;100917.63;215914;1274;140115;-66
2022/10/12 11:25:06;;;;;;;11.50;2.50;;;;;;;16.54;54.29;100917.20;215788;1274;140172;-65
2022/10/12 11:30:24;;;;;;;5.90;2.00;;;;;;;16.27;54.63;100911.65;215595;1276;139568;-65
2022/10/12 11:35:34;;;;;;;11.70;2.90;;;;;;;16.39;54.65;100909.09;215700;1274;140766;-65
2022/10/12 11:40:58;;;;;;;3.30;2.20;;;;;;;16.84;54.49;100902.00;215984;1274;141460;-64
2022/10/12 11:46:20;;;;;;;7.80;2.70;;;;;;;17.12;54.03;100898.84;216057;1273;141678;-65
2022/10/12 11:51:25;;;;;;;5.20;2.70;;;;;;;17.04;53.63;100887.48;215889;1273;140247;-66
2022/10/12 11:56:38;;;;;;;9.70;2.40;;;;;;;16.84;53.74;100891.77;215889;1274;140271;-65
2022/10/12 12:02:03;;;;;;;5.60;2.20;;;;;;;16.55;53.58;100888.27;215898;1274;139748;-64
2022/10/12 12:07:42;;;;;;;5.30;2.20;;;;;;;16.30;53.87;100893.98;215139;1274;141827;-66
2022/10/12 12:13:11;;;;;;;2.20;1.90;;;;;;;15.99;54.09;100896.09;213220;1274;139789;-66
2022/10/12 12:18:19;;;;;;;4.80;2.50;;;;;;;15.67;54.40;100894.05;215897;1272;139785;-67
2022/10/12 12:23:24;;;;;;;8.90;3.60;;;;;;;15.42;54.56;100889.77;216019;1274;141008;-67
2022/10/12 12:28:28;;;;;;;6.00;1.40;;;;;;;15.19;54.84;100883.63;216049;1272;140144;-67
2022/10/12 12:33:40;;;;;;;2.80;2.10;;;;;;;15.04;54.91;100884.91;216014;1274;140217;-67
2022/10/12 12:38:50;;;;;;;4.40;1.80;;;;;;;14.91;55.56;100881.95;215386;1274;140099;-66
2022/10/12 12:43:59;;;;;;;4.10;1.60;;;;;;;14.77;56.25;100881.41;215903;1274;140344;-66
2022/10/12 12:49:03;;;;;;;3.90;1.30;;;;;;;14.62;56.93;100885.16;215775;1275;140548;-66
2022/10/12 12:54:20;;;;;;;6.20;2.20;;;;;;;14.51;57.10;100880.59;215641;1274;139993;-65
2022/10/12 12:59:32;;;;;;;7.10;2.40;;;;;;;14.42;57.99;100880.06;215899;1274;140029;-64
2022/10/12 13:04:40;;;;;;;7.60;2.30;;;;;;;14.34;58.74;100879.42;215927;1273;139820;-65
2022/10/12 13:10:03;;;;;;;4.20;2.40;;;;;;;14.24;59.11;100877.84;215916;1274;140379;-63
2022/10/12 13:15:10;;;;;;;8.40;2.70;;;;;;;14.14;59.48;100874.24;215899;1274;140224;-64
2022/10/12 13:20:22;;;;;;;4.60;2.50;;;;;;;14.04;59.72;100870.52;216024;1274;139912;-65
2022/10/12 13:25:39;;;;;;;5.10;2.40;;;;;;;13.95;60.13;100865.46;216060;1274;139619;-64
2022/10/12 13:31:18;;;;;;;4.10;2.00;;;;;;;13.87;60.40;100867.77;215897;1274;140325;-64
2022/10/12 13:36:28;;;;;;;5.00;3.40;;;;;;;13.75;60.63;100865.66;215835;1274;140002;-64
2022/10/12 13:41:34;;;;;;;2.70;2.00;;;;;;;13.65;61.00;100864.11;216004;1274;140119;-65
2022/10/12 13:46:46;;;;;;;5.20;3.00;;;;;;;13.59;61.04;100861.73;215836;1274;140544;-65
2022/10/12 13:52:00;;;;;;;7.00;2.50;;;;;;;13.59;61.48;100858.52;216095;1274;141353;-66
2022/10/12 13:57:25;;;;;;;3.20;1.90;;;;;;;13.59;62.03;100852.73;215740;1274;140222;-64
2022/10/12 14:02:30;;;;;;;3.40;2.00;;;;;;;13.60;62.57;100853.80;215917;1274;139901;-64
2022/10/12 14:07:38;;;;;;;4.90;1.30;;;;;;;13.58;62.65;100853.88;215786;1274;141713;-64
2022/10/12 14:12:47;;;;;;;3.60;1.10;;;;;;;13.47;62.86;100854.02;215670;1274;140730;-64
2022/10/12 14:17:51;;;;;;;5.90;2.30;;;;;;;13.25;63.25;100854.59;215922;1274;141622;-67
2022/10/12 14:23:02;;;;;;;3.10;1.60;;;;;;;13.15;63.53;100850.00;216032;1274;140076;-64
2022/10/12 14:28:06;;;;;;;3.20;2.90;;;;;;;13.17;64.03;100845.90;215889;1274;140079;-65
2022/10/12 14:33:21;;;;;;;5.80;2.00;;;;;;;13.15;64.14;100845.42;215880;1274;142006;-66
2022/10/12 14:38:37;;;;;;;5.60;2.10;;;;;;;13.15;64.24;100837.95;213292;1274;144630;-65
2022/10/12 14:43:43;;;;;;;4.10;1.40;;;;;;;13.22;64.66;100841.69;216058;1274;141136;-66
2022/10/12 14:48:47;;;;;;;2.00;1.30;;;;;;;13.18;64.34;100837.58;214645;1274;141105;-64
2022/10/12 14:54:04;;;;;;;4.80;1.50;;;;;;;13.05;64.00;100837.76;215968;1274;140011;-67
2022/10/12 14:59:09;;;;;;;11.00;2.50;;;;;;;13.08;64.45;100837.96;215826;1274;142675;-65
2022/10/12 15:04:15;;;;;;;16.90;3.90;;;;;;;13.32;65.09;100836.13;215650;1274;140306;-66
2022/10/12 15:09:20;;;;;;;19.70;4.10;;;;;;;13.50;65.42;100832.51;215936;1274;140291;-67
2022/10/12 15:14:26;;;;;;;21.10;4.30;;;;;;;13.63;65.62;100831.74;215754;1273;140135;-67
2022/10/12 15:19:29;;;;;;;12.10;3.50;;;;;;;13.73;65.10;100831.58;215676;1274;142316;-67
2022/10/12 15:24:34;;;;;;;9.20;3.60;;;;;;;13.74;65.38;100833.11;215923;1274;141006;-68
2022/10/12 15:29:39;;;;;;;5.70;2.70;;;;;;;13.72;64.52;100827.34;215802;1274;140935;-66
2022/10/12 15:34:43;;;;;;;8.80;3.30;;;;;;;13.67;63.75;100826.17;216127;1273;140466;-65
2022/10/12 15:39:48;;;;;;;4.20;2.10;;;;;;;13.57;63.69;100825.94;216154;1273;140926;-66
2022/10/12 15:44:58;;;;;;;6.20;2.60;;;;;;;13.43;64.01;100824.12;215857;1274;140861;-65
2022/10/12 15:50:02;;;;;;;5.70;2.70;;;;;;;13.26;63.80;100823.55;215857;1274;139732;-65
2022/10/12 15:55:21;;;;;;;4.70;2.90;;;;;;;13.07;63.78;100821.13;215906;1274;139669;-66
2022/10/12 16:00:28;;;;;;;5.70;3.20;;;;;;;12.82;63.89;100820.67;215793;1273;140589;-65
2022/10/12 16:05:36;;;;;;;4.20;2.30;;;;;;;12.49;64.22;100821.77;216025;1274;139885;-65
2022/10/12 16:10:42;;;;;;;7.10;3.60;;;;;;;12.07;64.12;100830.65;215867;1274;140029;-66
2022/10/12 16:15:46;;;;;;;6.70;3.30;;;;;;;11.76;64.23;100834.67;215662;1273;142470;-65
2022/10/12 16:20:52;;;;;;;9.90;2.60;;;;;;;11.52;64.53;100834.86;215942;1274;140938;-66
2022/10/12 16:26:03;;;;;;;4.50;2.60;;;;;;;11.32;64.70;100830.77;215862;1273;139694;-66
2022/10/12 16:31:10;;;;;;;10.00;3.30;;;;;;;10.92;64.68;100830.55;215980;1274;139701;-66
2022/10/12 16:36:15;;;;;;;;;;;;;;;10.55;65.04;100830.69;215740;1274;139867;-66
2022/10/12 16:41:20;;;;;;;8.10;4.50;;;;;;;10.32;65.41;100833.96;216780;1274;126419;-65
2022/10/12 16:46:24;;;;;;;14.20;4.60;;;;;;;10.03;65.53;100826.88;216137;1274;140937;-66
2022/10/12 16:51:28;;;;;;;17.00;5.70;;;;;;;9.76;65.87;100834.39;215956;1274;139653;-65
2022/10/12 16:56:32;;;;;;;11.40;5.00;;;;;;;9.54;66.15;100830.17;215923;1274;140620;-67
2022/10/12 17:01:42;;;;;;;12.30;6.40;;;;;;;9.32;66.46;100835.59;215841;1274;142197;-67
2022/10/12 17:06:47;;;;;;;11.40;6.60;;;;;;;9.16;66.59;100835.90;215851;1274;140335;-67
2022/10/12 17:11:54;;;;;;;7.90;6.40;;;;;;;9.03;67.00;100835.27;215870;1272;140200;-66
2022/10/12 17:16:59;;;;;;;14.50;6.50;;;;;;;8.82;66.81;100834.80;215708;1276;141527;-67
2022/10/12 17:22:05;;;;;;;8.20;5.80;;;;;;;8.61;67.21;100831.70;216069;1274;139708;-67
2022/10/12 17:27:13;;;;;;;28.30;11.40;;;;;;;8.32;67.38;100833.92;215915;1274;140548;-67
2022/10/12 17:32:18;;;;;;;37.50;17.40;;;;;;;8.07;67.36;100832.09;216073;1273;142746;-67
2022/10/12 17:37:26;;;;;;;32.30;15.90;;;;;;;8.04;68.13;100829.08;215936;1274;140296;-67
2022/10/12 17:42:30;;;;;;;;;;;;;;;7.90;68.24;100826.63;215798;1277;141571;-66
2022/10/12 17:47:35;;;;;;;37.70;19.20;;;;;;;7.67;68.29;100832.85;215400;1272;1521410;-65
2022/10/12 17:52:40;;;;;;;31.10;14.80;;;;;;;7.57;68.79;100834.27;216078;1274;141578;-66
2022/10/12 17:57:45;;;;;;;44.30;17.00;;;;;;;7.44;68.31;100830.56;216079;1274;140651;-67
2022/10/12 18:02:49;;;;;;;53.90;20.50;;;;;;;7.18;68.52;100826.98;216248;1274;141043;-67
2022/10/12 18:07:53;;;;;;;35.50;15.90;;;;;;;7.08;69.08;100830.67;215997;1274;141353;-66
2022/10/12 18:12:58;;;;;;;36.00;15.90;;;;;;;7.04;69.45;100832.63;215938;1274;143308;-66
2022/10/12 18:18:02;;;;;;;34.90;20.10;;;;;;;6.84;69.17;100833.96;215649;1274;140035;-65
2022/10/12 18:23:06;;;;;;;25.00;15.90;;;;;;;6.66;69.25;100840.56;215830;1274;141209;-65
2022/10/12 18:28:11;;;;;;;40.70;16.60;;;;;;;6.42;69.80;100837.23;215838;1272;139774;-65
2022/10/12 18:33:15;;;;;;;36.90;18.90;;;;;;;6.27;70.19;100839.16;215864;1273;140199;-65
2022/10/12 18:38:20;;;;;;;41.60;23.40;;;;;;;6.29;70.86;100841.80;215918;1274;142903;-64
2022/10/12 18:43:24;;;;;;;64.00;34.00;;;;;;;6.28;70.35;100839.66;214324;1274;141698;-64
2022/10/12 18:48:31;;;;;;;79.70;44.10;;;;;;;6.22;70.42;100841.36;215989;1273;140744;-63
2022/10/12 18:53:40;;;;;;;74.50;38.30;;;;;;;6.05;70.94;100837.85;215815;1274;159460;-65
2022/10/12 18:58:44;;;;;;;86.10;40.20;;;;;;;5.96;71.18;100842.24;215149;1274;142159;-64
2022/10/12 19:03:53;;;;;;;72.00;37.40;;;;;;;5.89;71.15;100848.61;215805;1274;140534;-65
2022/10/12 19:09:01;;;;;;;80.30;41.00;;;;;;;5.88;71.16;100847.52;215893;1274;140656;-65
2022/10/12 19:14:14;;;;;;;99.30;42.70;;;;;;;5.80;71.18;100852.39;215525;1274;141009;-66
2022/10/12 19:19:19;;;;;;;65.20;32.30;;;;;;;5.74;71.29;100850.00;215845;1274;140876;-65
2022/10/12 19:24:26;;;;;;;53.60;28.70;;;;;;;5.62;71.24;100850.23;215814;1274;140214;-65
2022/10/12 19:29:30;;;;;;;67.60;35.50;;;;;;;5.53;71.38;100855.15;216033;1274;140312;-66
2022/10/12 19:34:35;;;;;;;67.00;36.60;;;;;;;5.41;71.34;100854.30;216064;1274;140760;-65
2022/10/12 19:39:43;;;;;;;85.20;42.50;;;;;;;5.27;71.68;100855.81;216005;1273;139742;-65
2022/10/12 19:44:48;;;;;;;86.40;44.30;;;;;;;5.20;71.57;100853.64;215914;1274;142656;-65
2022/10/12 19:49:53;;;;;;;67.50;37.80;;;;;;;5.14;71.65;100853.32;215842;1274;141489;-65
2022/10/12 19:54:58;;;;;;;57.50;31.10;;;;;;;5.03;71.84;100852.40;213580;1274;139898;-64
2022/10/12 20:00:03;;;;;;;52.40;27.70;;;;;;;4.89;72.18;100854.80;215942;1274;140187;-64
2022/10/12 20:05:08;;;;;;;58.30;29.40;;;;;;;4.78;72.48;100851.46;215212;1273;139776;-64
2022/10/12 20:10:13;;;;;;;41.30;27.90;;;;;;;4.73;72.58;100848.44;215839;1273;141141;-65
2022/10/12 20:15:17;;;;;;;52.70;29.70;;;;;;;4.80;72.74;100847.37;215753;1274;141980;-66
2022/10/12 20:20:23;;;;;;;61.10;38.10;;;;;;;4.80;72.56;100845.16;212713;1274;141468;-64
2022/10/12 20:25:28;;;;;;;69.60;41.10;;;;;;;4.66;72.51;100839.58;216029;1273;141456;-65
2022/10/12 20:30:32;;;;;;;66.70;35.10;;;;;;;4.46;72.60;100838.71;215194;1273;139891;-65
2022/10/12 20:35:44;;;;;;;76.10;42.80;;;;;;;4.33;73.07;100839.17;215894;1274;139817;-65
2022/10/12 20:40:48;;;;;;;75.60;41.00;;;;;;;4.29;73.07;100842.81;215586;1274;140483;-65
2022/10/12 20:45:51;;;;;;;71.90;39.60;;;;;;;4.24;73.04;100848.31;215993;1273;140469;-64
2022/10/12 20:50:55;;;;;;;79.30;47.70;;;;;;;4.21;73.03;100845.30;215967;1273;143746;-68
2022/10/12 20:56:01;;;;;;;86.70;52.30;;;;;;;4.17;73.29;100843.79;215918;1274;140333;-65
2022/10/12 21:01:10;;;;;;;64.60;37.00;;;;;;;4.18;73.42;100844.23;215778;1274;158567;-64
2022/10/12 21:06:16;;;;;;;76.10;44.20;;;;;;;4.06;73.36;100842.80;216048;1273;142430;-67
2022/10/12 21:11:20;;;;;;;86.10;47.90;;;;;;;4.05;73.40;100838.66;215597;1274;143390;-67
2022/10/12 21:16:25;;;;;;;75.50;48.50;;;;;;;4.09;73.53;100833.76;215833;1274;140271;-65
2022/10/12 21:21:29;;;;;;;89.40;49.30;;;;;;;4.02;73.48;100837.32;215710;1273;161358;-65
2022/10/12 21:26:32;;;;;;;80.50;50.70;;;;;;;3.95;73.49;100831.99;216154;1274;140615;-65
2022/10/12 21:31:36;;;;;;;86.10;48.70;;;;;;;3.84;73.40;100835.28;216112;1273;140552;-65
2022/10/12 21:36:41;;;;;;;101.90;57.70;;;;;;;3.72;73.45;100833.52;216145;1273;152772;-65
2022/10/12 21:41:45;;;;;;;98.10;56.30;;;;;;;3.65;73.54;100830.00;216049;1273;141293;-63
2022/10/12 21:46:49;;;;;;;90.10;52.20;;;;;;;3.62;73.72;100834.95;215862;1274;140990;-64
2022/10/12 21:51:54;;;;;;;83.40;50.30;;;;;;;3.59;73.83;100838.92;215833;1272;140310;-64
2022/10/12 21:56:58;;;;;;;93.80;53.60;;;;;;;3.52;73.58;100838.77;215937;1273;141840;-63
2022/10/12 22:02:04;;;;;;;94.10;53.40;;;;;;;3.47;73.92;100837.41;215884;1272;139931;-64
2022/10/12 22:07:08;;;;;;;83.90;52.10;;;;;;;3.39;73.99;100835.96;216042;1273;139650;-64
2022/10/12 22:12:12;;;;;;;92.60;52.80;;;;;;;3.38;74.31;100836.98;215506;1274;140196;-64
2022/10/12 22:17:16;;;;;;;102.40;59.50;;;;;;;3.34;73.95;100833.56;214802;1274;139959;-62
2022/10/12 22:22:20;;;;;;;101.70;59.40;;;;;;;3.26;73.91;100837.59;214612;1274;142305;-63
2022/10/12 22:27:25;;;;;;;104.60;59.60;;;;;;;3.20;73.98;100837.34;214551;1274;140468;-64
2022/10/12 22:32:29;;;;;;;98.40;58.90;;;;;;;3.18;74.21;100842.14;215635;1274;140501;-64
2022/10/12 22:37:32;;;;;;;82.00;55.30;;;;;;;3.16;74.23;100840.39;214858;1276;139964;-63
2022/10/12 22:42:36;;;;;;;82.90;50.20;;;;;;;3.07;74.51;100842.16;215095;1274;139603;-63
2022/10/12 22:47:41;;;;;;;112.80;60.30;;;;;;;3.00;74.50;100841.85;214804;1274;139528;-64
2022/10/12 22:52:46;;;;;;;99.40;55.50;;;;;;;2.98;74.69;100841.48;214666;1274;141965;-63
2022/10/12 22:57:49;;;;;;;93.90;57.50;;;;;;;2.95;74.40;100833.38;214086;1273;141006;-63
2022/10/12 23:02:54;;;;;;;103.70;64.60;;;;;;;2.89;74.58;100835.44;214792;1274;140880;-63
2022/10/12 23:07:59;;;;;;;81.40;48.40;;;;;;;2.82;74.92;100836.45;215170;1272;141307;-63
2022/10/12 23:13:03;;;;;;;117.00;56.30;;;;;;;2.75;75.04;100830.20;214841;1274;140801;-63